עמוד ראשי
METAR-TAF:

METAR-TAF

שדות תעופה :

אגאדיר, מרוקו

קו רוחב: 30-20N, קו אורך: 009-24W, גובה: 74מטר

תצפית מזג אוויר נוכחית

הדו"ח נערך לפני 18דקות, בשעה 11:00 UTC
רוח 6קשר מכיוון מערב, משתנה בין דרום-מערב ו מערב/צפון-מערב
טמפרטורת 21 צלסיוס
לחות 94%
לחץ 1012 hPa
ראות: 8000מטר
מעט עננים בגובה 1000רגל
עננים בינוניים בגובה 1600רגל

METAR: GMAD 251100Z 26006KT 220V300 8000 FEW010 BKN016 21/20 Q1012 NOSIG

זמן: 12:18 (11:18 UTC)

תחזית

הדו"ח נערך לפני 6 שעות ו 18דקות, בשעה 05:00 UTC
תחזית בתוקף מ 25 ב 06 UTC עד 26 ב 12 UTC
רוח 4קשר מכיוון דרום-מערב
ראות: 8000מטר
עננים בינוניים בגובה 1600רגל
זמנית מ -
25 ב 06 UTC עד 25 ב 10 UTC
ראות: 2000מטר
מעונן בגובה 500רגל
אד
יעשה מ
25 ב 11 UTC עד 25 ב 13 UTC
רוח 12קשר מכיוון מערב
ראות 10 קילומטר או יותר
ללא עננים שבסיסם נמוך מ 5000 רגל או קומולונימבוס

TAF: GMAD 250500Z 2506/2612 22004KT 8000 BKN016 TEMPO 2506/2510 2000 BR OVC005 BECMG 2511/2513 27012KT CAVOK

תצפיות ותחזיות מזג אוויר לגבי יותר מ- 4,000 שדות תעופה ברחבי העולם. דוחות METAR ו- TAF.

התחנות הזמינות מסומנות בנקודות צהובות ואדומות על גבי המפה.

העבר את העכבר לנקודה הצבעונית על מנת לראות את שם התחנה.

לאחר מכן, לחץ כדי לראות את תוכן ואת תחזיות מזג האוויר.

כדי לשנות את המפה: לחץ על הכפתורים הירוקים עם הפלוס השחור כדי להתקרב; על הכפתור הירוק עם המקף כדי להתרחק; או בחיצים הירוקים למפות סמוכות.


METAR-TAF: